sensor_id;sensor_type;location;lat;lon;timestamp;P1;durP1;ratioP1;P2;durP2;ratioP2
35304;SDS011;26433;48.034;-1.764;2022-12-18T06:04:09;15.55;;;4.60;;
35304;SDS011;26433;48.034;-1.764;2022-12-18T06:09:12;16.17;;;4.95;;
35304;SDS011;26433;48.034;-1.764;2022-12-18T06:14:16;14.63;;;4.97;;
35304;SDS011;26433;48.034;-1.764;2022-12-18T06:19:21;15.48;;;4.85;;
35304;SDS011;26433;48.034;-1.764;2022-12-18T06:24:25;16.25;;;5.47;;
35304;SDS011;26433;48.034;-1.764;2022-12-18T06:29:29;16.05;;;5.35;;
35304;SDS011;26433;48.034;-1.764;2022-12-18T06:34:34;17.62;;;5.60;;
35304;SDS011;26433;48.034;-1.764;2022-12-18T06:39:40;17.23;;;5.18;;
35304;SDS011;26433;48.034;-1.764;2022-12-18T06:44:44;15.05;;;5.85;;
35304;SDS011;26433;48.034;-1.764;2022-12-18T06:49:50;12.82;;;4.80;;
35304;SDS011;26433;48.034;-1.764;2022-12-18T06:54:53;14.98;;;5.03;;
35304;SDS011;26433;48.034;-1.764;2022-12-18T06:59:57;12.02;;;4.93;;
35304;SDS011;26433;48.034;-1.764;2022-12-18T07:05:02;14.23;;;5.70;;
35304;SDS011;26433;48.034;-1.764;2022-12-18T07:10:11;9.68;;;3.97;;
35304;SDS011;26433;48.034;-1.764;2022-12-18T07:15:15;12.10;;;5.03;;
35304;SDS011;26433;48.034;-1.764;2022-12-18T07:25:24;9.15;;;4.32;;
35304;SDS011;26433;48.034;-1.764;2022-12-18T07:30:28;11.20;;;4.45;;
35304;SDS011;26433;48.034;-1.764;2022-12-18T07:35:33;10.43;;;4.53;;
35304;SDS011;26433;48.034;-1.764;2022-12-18T07:40:40;9.30;;;3.62;;
35304;SDS011;26433;48.034;-1.764;2022-12-18T07:45:44;14.20;;;5.15;;
35304;SDS011;26433;48.034;-1.764;2022-12-18T07:50:49;13.55;;;4.12;;
35304;SDS011;26433;48.034;-1.764;2022-12-18T07:55:54;10.75;;;4.50;;
35304;SDS011;26433;48.034;-1.764;2022-12-18T08:01:19;11.38;;;4.45;;
35304;SDS011;26433;48.034;-1.764;2022-12-18T08:11:28;12.73;;;4.72;;
35304;SDS011;26433;48.034;-1.764;2022-12-18T08:16:32;10.15;;;4.25;;
35304;SDS011;26433;48.034;-1.764;2022-12-18T08:26:42;9.23;;;4.43;;
35304;SDS011;26433;48.034;-1.764;2022-12-18T08:32:06;9.98;;;3.97;;
35304;SDS011;26433;48.034;-1.764;2022-12-18T08:37:11;8.43;;;3.70;;
35304;SDS011;26433;48.034;-1.764;2022-12-18T08:42:15;13.52;;;4.80;;
35304;SDS011;26433;48.034;-1.764;2022-12-18T08:47:36;10.13;;;4.53;;
35304;SDS011;26433;48.034;-1.764;2022-12-18T08:52:42;11.27;;;5.03;;
35304;SDS011;26433;48.034;-1.764;2022-12-18T08:57:47;10.73;;;4.60;;
35304;SDS011;26433;48.034;-1.764;2022-12-18T09:02:51;12.02;;;4.40;;
35304;SDS011;26433;48.034;-1.764;2022-12-18T09:13:01;12.18;;;4.60;;
35304;SDS011;26433;48.034;-1.764;2022-12-18T09:18:04;8.38;;;3.75;;
35304;SDS011;26433;48.034;-1.764;2022-12-18T09:23:10;11.52;;;5.32;;
35304;SDS011;26433;48.034;-1.764;2022-12-18T09:28:14;12.73;;;4.78;;
35304;SDS011;26433;48.034;-1.764;2022-12-18T09:33:19;14.80;;;4.97;;
35304;SDS011;26433;48.034;-1.764;2022-12-18T09:38:24;16.20;;;5.85;;
35304;SDS011;26433;48.034;-1.764;2022-12-18T09:43:29;11.80;;;4.20;;
35304;SDS011;26433;48.034;-1.764;2022-12-18T09:48:38;17.50;;;4.60;;
35304;SDS011;26433;48.034;-1.764;2022-12-18T09:53:52;12.13;;;4.85;;
35304;SDS011;26433;48.034;-1.764;2022-12-18T09:59:00;9.85;;;4.87;;
35304;SDS011;26433;48.034;-1.764;2022-12-18T10:04:05;15.63;;;5.57;;
35304;SDS011;26433;48.034;-1.764;2022-12-18T10:14:18;14.60;;;5.72;;
35304;SDS011;26433;48.034;-1.764;2022-12-18T10:19:34;11.93;;;4.82;;
35304;SDS011;26433;48.034;-1.764;2022-12-18T10:24:44;17.87;;;5.93;;
35304;SDS011;26433;48.034;-1.764;2022-12-18T10:29:58;14.70;;;5.87;;
35304;SDS011;26433;48.034;-1.764;2022-12-18T10:35:04;9.32;;;4.18;;
35304;SDS011;26433;48.034;-1.764;2022-12-18T10:40:15;12.23;;;4.68;;
35304;SDS011;26433;48.034;-1.764;2022-12-18T10:45:23;15.80;;;4.60;;
35304;SDS011;26433;48.034;-1.764;2022-12-18T10:50:28;11.63;;;4.43;;
35304;SDS011;26433;48.034;-1.764;2022-12-18T10:55:57;9.35;;;4.30;;
35304;SDS011;26433;48.034;-1.764;2022-12-18T11:01:06;15.63;;;4.93;;
35304;SDS011;26433;48.034;-1.764;2022-12-18T11:06:12;11.63;;;4.35;;
35304;SDS011;26433;48.034;-1.764;2022-12-18T11:11:20;7.87;;;3.95;;
35304;SDS011;26433;48.034;-1.764;2022-12-18T11:16:25;8.82;;;3.37;;
35304;SDS011;26433;48.034;-1.764;2022-12-18T11:21:29;11.45;;;4.40;;
35304;SDS011;26433;48.034;-1.764;2022-12-18T11:26:35;10.50;;;3.22;;
35304;SDS011;26433;48.034;-1.764;2022-12-18T11:31:41;9.98;;;3.28;;
35304;SDS011;26433;48.034;-1.764;2022-12-18T11:36:47;9.23;;;3.47;;
35304;SDS011;26433;48.034;-1.764;2022-12-18T11:41:54;6.90;;;3.17;;
35304;SDS011;26433;48.034;-1.764;2022-12-18T11:47:14;8.60;;;4.05;;
35304;SDS011;26433;48.034;-1.764;2022-12-18T11:52:25;5.50;;;2.87;;
35304;SDS011;26433;48.034;-1.764;2022-12-18T11:57:35;6.87;;;2.75;;
35304;SDS011;26433;48.034;-1.764;2022-12-18T12:02:47;5.80;;;3.20;;
35304;SDS011;26433;48.034;-1.764;2022-12-18T12:08:15;12.70;;;3.47;;
35304;SDS011;26433;48.034;-1.764;2022-12-18T12:13:34;4.78;;;2.67;;
35304;SDS011;26433;48.034;-1.764;2022-12-18T12:18:49;8.00;;;3.03;;
35304;SDS011;26433;48.034;-1.764;2022-12-18T12:24:08;7.90;;;3.30;;
35304;SDS011;26433;48.034;-1.764;2022-12-18T12:29:27;6.28;;;3.05;;
35304;SDS011;26433;48.034;-1.764;2022-12-18T12:34:44;7.57;;;3.75;;
35304;SDS011;26433;48.034;-1.764;2022-12-18T12:40:04;4.57;;;2.25;;
35304;SDS011;26433;48.034;-1.764;2022-12-18T12:45:30;7.93;;;2.83;;
35304;SDS011;26433;48.034;-1.764;2022-12-18T12:50:39;7.65;;;3.58;;
35304;SDS011;26433;48.034;-1.764;2022-12-18T12:55:44;7.32;;;3.00;;
35304;SDS011;26433;48.034;-1.764;2022-12-18T13:00:53;7.95;;;3.45;;
35304;SDS011;26433;48.034;-1.764;2022-12-18T13:06:02;10.93;;;3.23;;
35304;SDS011;26433;48.034;-1.764;2022-12-18T13:11:12;10.27;;;4.03;;
35304;SDS011;26433;48.034;-1.764;2022-12-18T13:17:26;7.25;;;3.15;;
35304;SDS011;26433;48.034;-1.764;2022-12-18T13:22:34;10.10;;;3.62;;
35304;SDS011;26433;48.034;-1.764;2022-12-18T13:27:57;6.18;;;3.30;;
35304;SDS011;26433;48.034;-1.764;2022-12-18T13:39:20;9.02;;;2.97;;
35304;SDS011;26433;48.034;-1.764;2022-12-18T13:44:37;8.27;;;3.70;;
35304;SDS011;26433;48.034;-1.764;2022-12-18T13:49:43;8.18;;;2.90;;
35304;SDS011;26433;48.034;-1.764;2022-12-18T13:54:50;7.78;;;2.80;;
35304;SDS011;26433;48.034;-1.764;2022-12-18T13:59:56;9.18;;;2.70;;
35304;SDS011;26433;48.034;-1.764;2022-12-18T14:05:00;4.97;;;2.45;;
35304;SDS011;26433;48.034;-1.764;2022-12-18T14:10:12;5.50;;;2.58;;
35304;SDS011;26433;48.034;-1.764;2022-12-18T14:15:39;9.85;;;2.58;;
35304;SDS011;26433;48.034;-1.764;2022-12-18T14:20:45;6.97;;;2.70;;
35304;SDS011;26433;48.034;-1.764;2022-12-18T14:25:55;4.80;;;2.17;;
35304;SDS011;26433;48.034;-1.764;2022-12-18T14:31:15;5.75;;;2.33;;
35304;SDS011;26433;48.034;-1.764;2022-12-18T14:36:22;7.05;;;2.65;;
35304;SDS011;26433;48.034;-1.764;2022-12-18T14:41:28;5.30;;;2.45;;
35304;SDS011;26433;48.034;-1.764;2022-12-18T14:46:34;6.70;;;3.22;;
35304;SDS011;26433;48.034;-1.764;2022-12-18T14:51:41;7.57;;;3.03;;
35304;SDS011;26433;48.034;-1.764;2022-12-18T14:56:54;5.37;;;3.05;;
35304;SDS011;26433;48.034;-1.764;2022-12-18T15:02:03;6.20;;;3.00;;
35304;SDS011;26433;48.034;-1.764;2022-12-18T15:07:19;5.85;;;2.83;;
35304;SDS011;26433;48.034;-1.764;2022-12-18T15:12:28;8.82;;;3.10;;
35304;SDS011;26433;48.034;-1.764;2022-12-18T15:17:37;6.12;;;2.97;;
35304;SDS011;26433;48.034;-1.764;2022-12-18T15:22:41;6.30;;;2.90;;
35304;SDS011;26433;48.034;-1.764;2022-12-18T15:27:47;5.85;;;2.75;;
35304;SDS011;26433;48.034;-1.764;2022-12-18T15:32:51;6.40;;;3.00;;
35304;SDS011;26433;48.034;-1.764;2022-12-18T15:38:15;6.62;;;2.50;;
35304;SDS011;26433;48.034;-1.764;2022-12-18T15:43:31;5.53;;;2.58;;
35304;SDS011;26433;48.034;-1.764;2022-12-18T15:48:39;7.85;;;2.83;;
35304;SDS011;26433;48.034;-1.764;2022-12-18T15:53:44;3.75;;;2.08;;
35304;SDS011;26433;48.034;-1.764;2022-12-18T15:58:50;3.55;;;1.70;;
35304;SDS011;26433;48.034;-1.764;2022-12-18T16:03:54;6.87;;;2.12;;
35304;SDS011;26433;48.034;-1.764;2022-12-18T16:08:58;5.53;;;2.60;;
35304;SDS011;26433;48.034;-1.764;2022-12-18T16:14:04;4.32;;;1.75;;
35304;SDS011;26433;48.034;-1.764;2022-12-18T16:19:09;5.18;;;2.53;;
35304;SDS011;26433;48.034;-1.764;2022-12-18T16:24:13;5.90;;;2.22;;
35304;SDS011;26433;48.034;-1.764;2022-12-18T16:29:20;3.42;;;2.20;;
35304;SDS011;26433;48.034;-1.764;2022-12-18T16:34:29;3.78;;;1.85;;
35304;SDS011;26433;48.034;-1.764;2022-12-18T16:39:37;6.70;;;2.08;;
35304;SDS011;26433;48.034;-1.764;2022-12-18T16:44:43;3.60;;;1.62;;
35304;SDS011;26433;48.034;-1.764;2022-12-18T16:49:47;2.55;;;1.80;;
35304;SDS011;26433;48.034;-1.764;2022-12-18T16:54:52;3.00;;;1.55;;
35304;SDS011;26433;48.034;-1.764;2022-12-18T16:59:58;6.87;;;2.15;;
35304;SDS011;26433;48.034;-1.764;2022-12-18T17:05:06;2.45;;;1.55;;
35304;SDS011;26433;48.034;-1.764;2022-12-18T17:10:12;3.58;;;1.95;;
35304;SDS011;26433;48.034;-1.764;2022-12-18T17:15:17;4.12;;;1.70;;
35304;SDS011;26433;48.034;-1.764;2022-12-18T17:20:21;3.05;;;1.58;;
35304;SDS011;26433;48.034;-1.764;2022-12-18T17:30:30;4.57;;;1.50;;
35304;SDS011;26433;48.034;-1.764;2022-12-18T17:35:34;3.25;;;1.67;;
35304;SDS011;26433;48.034;-1.764;2022-12-18T17:40:38;3.15;;;1.20;;
35304;SDS011;26433;48.034;-1.764;2022-12-18T17:45:48;3.17;;;1.67;;
35304;SDS011;26433;48.034;-1.764;2022-12-18T17:50:52;1.67;;;1.20;;
35304;SDS011;26433;48.034;-1.764;2022-12-18T17:55:56;6.93;;;1.52;;
35304;SDS011;26433;48.034;-1.764;2022-12-18T18:01:04;3.95;;;1.67;;
35304;SDS011;26433;48.034;-1.764;2022-12-18T18:06:09;6.72;;;2.12;;
35304;SDS011;26433;48.034;-1.764;2022-12-18T18:11:14;3.20;;;1.48;;
35304;SDS011;26433;48.034;-1.764;2022-12-18T18:16:38;5.60;;;1.58;;
35304;SDS011;26433;48.034;-1.764;2022-12-18T18:21:43;5.65;;;1.80;;
35304;SDS011;26433;48.034;-1.764;2022-12-18T18:26:50;4.22;;;1.52;;
35304;SDS011;26433;48.034;-1.764;2022-12-18T18:31:57;2.10;;;1.45;;
35304;SDS011;26433;48.034;-1.764;2022-12-18T18:37:01;4.47;;;1.62;;
35304;SDS011;26433;48.034;-1.764;2022-12-18T18:42:05;2.92;;;1.73;;
35304;SDS011;26433;48.034;-1.764;2022-12-18T18:47:10;2.92;;;1.65;;
35304;SDS011;26433;48.034;-1.764;2022-12-18T18:52:15;2.80;;;1.40;;
35304;SDS011;26433;48.034;-1.764;2022-12-18T18:57:19;3.08;;;1.92;;
35304;SDS011;26433;48.034;-1.764;2022-12-18T19:02:30;6.30;;;1.58;;
35304;SDS011;26433;48.034;-1.764;2022-12-18T19:07:34;3.42;;;1.98;;
35304;SDS011;26433;48.034;-1.764;2022-12-18T19:12:38;5.53;;;1.90;;
35304;SDS011;26433;48.034;-1.764;2022-12-18T19:18:01;1.92;;;1.52;;
35304;SDS011;26433;48.034;-1.764;2022-12-18T19:23:06;2.33;;;1.42;;
35304;SDS011;26433;48.034;-1.764;2022-12-18T19:28:10;3.70;;;1.60;;
35304;SDS011;26433;48.034;-1.764;2022-12-18T19:33:24;3.42;;;1.50;;
35304;SDS011;26433;48.034;-1.764;2022-12-18T19:38:45;1.62;;;1.00;;
35304;SDS011;26433;48.034;-1.764;2022-12-18T19:48:55;3.35;;;1.35;;
35304;SDS011;26433;48.034;-1.764;2022-12-18T19:54:01;5.82;;;1.58;;
35304;SDS011;26433;48.034;-1.764;2022-12-18T19:59:05;5.43;;;1.42;;
35304;SDS011;26433;48.034;-1.764;2022-12-18T20:04:11;2.65;;;1.15;;
35304;SDS011;26433;48.034;-1.764;2022-12-18T20:09:15;5.65;;;1.65;;
35304;SDS011;26433;48.034;-1.764;2022-12-18T20:14:20;3.60;;;1.33;;
35304;SDS011;26433;48.034;-1.764;2022-12-18T20:19:26;4.10;;;1.17;;
35304;SDS011;26433;48.034;-1.764;2022-12-18T20:24:29;4.57;;;1.30;;
35304;SDS011;26433;48.034;-1.764;2022-12-18T20:29:33;1.77;;;0.83;;
35304;SDS011;26433;48.034;-1.764;2022-12-18T20:34:38;2.12;;;1.00;;
35304;SDS011;26433;48.034;-1.764;2022-12-18T20:39:42;1.48;;;1.00;;
35304;SDS011;26433;48.034;-1.764;2022-12-18T20:44:47;2.25;;;0.98;;
35304;SDS011;26433;48.034;-1.764;2022-12-18T20:49:52;1.77;;;0.98;;
35304;SDS011;26433;48.034;-1.764;2022-12-18T20:54:57;1.33;;;0.95;;
35304;SDS011;26433;48.034;-1.764;2022-12-18T21:05:07;2.83;;;1.00;;
35304;SDS011;26433;48.034;-1.764;2022-12-18T21:10:11;2.50;;;0.77;;
35304;SDS011;26433;48.034;-1.764;2022-12-18T21:15:15;2.25;;;1.12;;
35304;SDS011;26433;48.034;-1.764;2022-12-18T21:20:23;1.00;;;0.88;;
35304;SDS011;26433;48.034;-1.764;2022-12-18T21:25:27;2.55;;;1.05;;
35304;SDS011;26433;48.034;-1.764;2022-12-18T21:30:31;2.37;;;0.80;;
35304;SDS011;26433;48.034;-1.764;2022-12-18T21:35:37;2.90;;;0.70;;
35304;SDS011;26433;48.034;-1.764;2022-12-18T21:40:40;2.90;;;1.12;;
35304;SDS011;26433;48.034;-1.764;2022-12-18T21:45:44;3.37;;;1.17;;
35304;SDS011;26433;48.034;-1.764;2022-12-18T21:50:50;1.62;;;0.85;;
35304;SDS011;26433;48.034;-1.764;2022-12-18T21:55:56;3.33;;;1.00;;
35304;SDS011;26433;48.034;-1.764;2022-12-18T22:01:00;2.35;;;1.27;;
35304;SDS011;26433;48.034;-1.764;2022-12-18T22:06:06;2.42;;;1.00;;
35304;SDS011;26433;48.034;-1.764;2022-12-18T22:11:11;1.75;;;1.00;;
35304;SDS011;26433;48.034;-1.764;2022-12-18T22:16:16;3.00;;;1.10;;
35304;SDS011;26433;48.034;-1.764;2022-12-18T22:21:22;2.00;;;0.97;;
35304;SDS011;26433;48.034;-1.764;2022-12-18T22:26:30;1.90;;;1.12;;
35304;SDS011;26433;48.034;-1.764;2022-12-18T22:31:41;1.42;;;1.00;;
35304;SDS011;26433;48.034;-1.764;2022-12-18T22:36:46;1.93;;;0.97;;
35304;SDS011;26433;48.034;-1.764;2022-12-18T22:41:50;1.60;;;0.88;;
35304;SDS011;26433;48.034;-1.764;2022-12-18T22:46:55;4.28;;;1.20;;
35304;SDS011;26433;48.034;-1.764;2022-12-18T22:52:09;1.52;;;1.00;;
35304;SDS011;26433;48.034;-1.764;2022-12-18T22:57:14;1.15;;;0.68;;
35304;SDS011;26433;48.034;-1.764;2022-12-18T23:02:18;4.47;;;0.77;;
35304;SDS011;26433;48.034;-1.764;2022-12-18T23:07:23;2.67;;;0.90;;
35304;SDS011;26433;48.034;-1.764;2022-12-18T23:12:27;1.30;;;0.85;;
35304;SDS011;26433;48.034;-1.764;2022-12-18T23:17:31;2.00;;;1.00;;
35304;SDS011;26433;48.034;-1.764;2022-12-18T23:22:37;1.17;;;0.90;;
35304;SDS011;26433;48.034;-1.764;2022-12-18T23:27:41;1.42;;;0.80;;
